Time,TemperatureF,DewpointF,PressureIn,WindDirection,WindDirectionDegrees,WindSpeedMPH,WindSpeedGustMPH,Humidity,HourlyPrecipIn,Conditions,Clouds,dailyrainin,SoftwareType,DateUTC
2013-05-08 00:01:00,57.0,26.6,29.99,SE,135,4.0,19.0,31,0.00,,,0.00,Weather View 32 v70,2013-05-08 06:01:00,
2013-05-08 00:06:00,57.0,26.6,29.99,East,90,3.0,19.0,31,0.00,,,0.00,Weather View 32 v70,2013-05-08 06:06:00,
2013-05-08 00:11:00,57.0,26.6,30.00,East,90,0.0,18.0,31,0.00,,,0.00,Weather View 32 v70,2013-05-08 06:11:00,
2013-05-08 00:16:00,57.0,28.1,30.00,East,90,1.0,18.0,33,0.00,,,0.00,Weather View 32 v70,2013-05-08 06:16:00,
2013-05-08 00:21:00,57.0,28.1,30.00,East,90,0.0,18.0,33,0.00,,,0.00,Weather View 32 v70,2013-05-08 06:21:00,
2013-05-08 00:26:00,56.0,27.2,30.00,East,90,1.0,18.0,33,0.00,,,0.00,Weather View 32 v70,2013-05-08 06:26:00,
2013-05-08 00:31:00,56.0,27.2,30.00,East,90,0.0,18.0,33,0.00,,,0.00,Weather View 32 v70,2013-05-08 06:31:00,
2013-05-08 00:36:00,56.0,30.0,30.00,East,90,0.0,7.0,37,0.00,,,0.00,Weather View 32 v70,2013-05-08 06:36:00,
2013-05-08 00:41:00,56.0,29.4,30.00,East,90,5.0,7.0,36,0.00,,,0.00,Weather View 32 v70,2013-05-08 06:41:00,
2013-05-08 00:46:00,56.0,28.0,30.00,ENE,67,7.0,10.0,34,0.00,,,0.00,Weather View 32 v70,2013-05-08 06:46:00,
2013-05-08 00:51:00,56.0,29.4,30.00,NE,45,5.0,10.0,36,0.00,,,0.00,Weather View 32 v70,2013-05-08 06:51:00,
2013-05-08 00:56:00,56.0,29.4,30.00,NE,45,5.0,10.0,36,0.00,,,0.00,Weather View 32 v70,2013-05-08 06:56:00,
2013-05-08 01:01:00,56.0,30.0,30.02,NNE,22,0.0,10.0,37,0.00,,,0.00,Weather View 32 v70,2013-05-08 07:01:00,
2013-05-08 01:06:00,55.0,29.8,30.02,North,360,7.0,10.0,38,0.00,,,0.00,Weather View 32 v70,2013-05-08 07:06:00,
2013-05-08 01:11:00,56.0,28.0,30.01,NE,45,7.0,16.0,34,0.00,,,0.00,Weather View 32 v70,2013-05-08 07:11:00,
2013-05-08 01:16:00,56.0,27.2,30.01,North,360,0.0,16.0,33,0.00,,,0.00,Weather View 32 v70,2013-05-08 07:16:00,
2013-05-08 01:21:00,56.0,27.2,30.01,ENE,67,8.0,16.0,33,0.00,,,0.00,Weather View 32 v70,2013-05-08 07:21:00,
2013-05-08 01:26:00,56.0,26.5,30.01,NE,45,7.0,16.0,32,0.00,,,0.00,Weather View 32 v70,2013-05-08 07:26:00,
2013-05-08 01:31:00,56.0,27.2,30.01,NE,45,11.0,16.0,33,0.00,,,0.00,Weather View 32 v70,2013-05-08 07:31:00,
2013-05-08 01:36:00,56.0,27.2,30.01,ENE,67,9.0,16.0,33,0.00,,,0.00,Weather View 32 v70,2013-05-08 07:36:00,
2013-05-08 01:41:00,56.0,28.7,30.00,East,90,5.0,16.0,35,0.00,,,0.00,Weather View 32 v70,2013-05-08 07:41:00,
2013-05-08 01:46:00,56.0,28.7,30.00,NE,45,5.0,16.0,35,0.00,,,0.00,Weather View 32 v70,2013-05-08 07:46:00,
2013-05-08 01:51:00,55.0,27.1,30.01,East,90,4.0,16.0,34,0.00,,,0.00,Weather View 32 v70,2013-05-08 07:51:00,
2013-05-08 01:56:00,55.0,29.2,30.01,NNE,22,10.0,16.0,37,0.00,,,0.00,Weather View 32 v70,2013-05-08 07:56:00,
2013-05-08 02:01:00,55.0,29.2,29.99,NE,45,4.0,16.0,37,0.00,,,0.00,Weather View 32 v70,2013-05-08 08:01:00,
2013-05-08 02:06:00,54.0,28.9,29.99,NE,45,2.0,16.0,38,0.00,,,0.00,Weather View 32 v70,2013-05-08 08:06:00,
2013-05-08 02:11:00,54.0,28.9,30.00,NE,45,0.0,16.0,38,0.00,,,0.00,Weather View 32 v70,2013-05-08 08:11:00,
2013-05-08 02:16:00,54.0,30.2,30.00,NE,45,2.0,16.0,40,0.00,,,0.00,Weather View 32 v70,2013-05-08 08:16:00,
2013-05-08 02:21:00,53.0,30.5,30.00,NE,45,0.0,16.0,42,0.00,,,0.00,Weather View 32 v70,2013-05-08 08:21:00,
2013-05-08 02:26:00,53.0,30.5,30.00,East,90,6.0,16.0,42,0.00,,,0.00,Weather View 32 v70,2013-05-08 08:26:00,
2013-05-08 02:31:00,52.0,29.6,30.00,ENE,67,4.0,16.0,42,0.00,,,0.00,Weather View 32 v70,2013-05-08 08:31:00,
2013-05-08 02:36:00,53.0,30.5,30.00,NNE,22,3.0,13.0,42,0.00,,,0.00,Weather View 32 v70,2013-05-08 08:36:00,
2013-05-08 02:41:00,53.0,31.1,30.00,North,360,2.0,13.0,43,0.00,,,0.00,Weather View 32 v70,2013-05-08 08:41:00,
2013-05-08 02:46:00,52.0,30.2,30.00,NNW,337,4.0,13.0,43,0.00,,,0.00,Weather View 32 v70,2013-05-08 08:46:00,
2013-05-08 02:51:00,52.0,30.7,30.00,West,270,4.0,13.0,44,0.00,,,0.00,Weather View 32 v70,2013-05-08 08:51:00,
2013-05-08 02:56:00,52.0,32.4,30.00,West,270,7.0,12.0,47,0.00,,,0.00,Weather View 32 v70,2013-05-08 08:56:00,
2013-05-08 03:01:00,52.0,32.4,30.00,West,270,4.0,10.0,47,0.00,,,0.00,Weather View 32 v70,2013-05-08 09:01:00,
2013-05-08 03:06:00,52.0,33.4,30.00,West,270,4.0,10.0,49,0.00,,,0.00,Weather View 32 v70,2013-05-08 09:06:00,
2013-05-08 03:11:00,51.0,34.0,30.02,West,270,17.0,17.0,52,0.00,,,0.00,Weather View 32 v70,2013-05-08 09:11:00,
2013-05-08 03:16:00,51.0,36.7,30.02,NW,315,1.0,73.0,58,0.00,,,0.00,Weather View 32 v70,2013-05-08 09:16:00,
2013-05-08 03:21:00,50.0,36.6,30.04,SW,225,9.0,73.0,60,0.01,,,0.01,Weather View 32 v70,2013-05-08 09:21:00,
2013-05-08 03:26:00,49.0,39.6,30.04,SW,225,10.0,73.0,70,0.01,,,0.01,Weather View 32 v70,2013-05-08 09:26:00,
2013-05-08 03:31:00,48.0,41.5,30.04,SSW,202,5.0,73.0,78,0.01,,,0.01,Weather View 32 v70,2013-05-08 09:31:00,
2013-05-08 03:36:00,47.0,42.7,30.04,West,270,0.0,73.0,85,0.02,,,0.02,Weather View 32 v70,2013-05-08 09:36:00,
2013-05-08 03:41:00,47.0,44.8,30.04,North,360,7.0,73.0,92,0.02,,,0.02,Weather View 32 v70,2013-05-08 09:41:00,
2013-05-08 03:46:00,46.0,43.5,30.04,North,360,7.0,73.0,91,0.02,,,0.02,Weather View 32 v70,2013-05-08 09:46:00,
2013-05-08 03:51:00,46.0,42.0,30.03,NNE,22,3.0,73.0,86,0.02,,,0.02,Weather View 32 v70,2013-05-08 09:51:00,
2013-05-08 03:56:00,46.0,43.2,30.03,NNE,22,3.0,73.0,90,0.02,,,0.02,Weather View 32 v70,2013-05-08 09:56:00,
2013-05-08 04:01:00,46.0,41.7,30.04,NW,315,3.0,73.0,85,0.02,,,0.02,Weather View 32 v70,2013-05-08 10:01:00,
2013-05-08 04:06:00,45.0,40.5,30.04,NW,315,9.0,73.0,84,0.02,,,0.02,Weather View 32 v70,2013-05-08 10:06:00,
2013-05-08 04:11:00,45.0,39.8,30.05,West,270,6.0,73.0,82,0.02,,,0.02,Weather View 32 v70,2013-05-08 10:11:00,
2013-05-08 04:16:00,45.0,39.2,30.05,West,270,7.0,73.0,80,0.02,,,0.02,Weather View 32 v70,2013-05-08 10:16:00,
2013-05-08 04:21:00,45.0,39.5,30.05,WNW,292,6.0,23.0,81,0.01,,,0.02,Weather View 32 v70,2013-05-08 10:21:00,
2013-05-08 04:26:00,45.0,39.5,30.05,NW,315,10.0,21.0,81,0.01,,,0.02,Weather View 32 v70,2013-05-08 10:26:00,
2013-05-08 04:31:00,45.0,39.8,30.06,NW,315,6.0,16.0,82,0.01,,,0.02,Weather View 32 v70,2013-05-08 10:31:00,
2013-05-08 04:36:00,45.0,39.5,30.06,WNW,292,7.0,15.0,81,0.00,,,0.02,Weather View 32 v70,2013-05-08 10:36:00,
2013-05-08 04:41:00,45.0,38.2,30.06,NW,315,11.0,15.0,77,0.00,,,0.02,Weather View 32 v70,2013-05-08 10:41:00,
2013-05-08 04:46:00,45.0,38.2,30.06,West,270,6.0,15.0,77,0.00,,,0.02,Weather View 32 v70,2013-05-08 10:46:00,
2013-05-08 04:51:00,44.0,37.2,30.05,NW,315,9.0,15.0,77,0.00,,,0.02,Weather View 32 v70,2013-05-08 10:51:00,
2013-05-08 04:56:00,44.0,36.2,30.05,NW,315,6.0,15.0,74,0.00,,,0.02,Weather View 32 v70,2013-05-08 10:56:00,
2013-05-08 05:01:00,44.0,36.2,30.05,NW,315,6.0,15.0,74,0.00,,,0.02,Weather View 32 v70,2013-05-08 11:01:00,
2013-05-08 05:06:00,44.0,36.2,30.05,NW,315,4.0,15.0,74,0.00,,,0.02,Weather View 32 v70,2013-05-08 11:06:00,
2013-05-08 05:11:00,44.0,35.5,30.05,NW,315,8.0,15.0,72,0.00,,,0.02,Weather View 32 v70,2013-05-08 11:11:00,
2013-05-08 05:16:00,44.0,36.2,30.05,NW,315,4.0,15.0,74,0.00,,,0.02,Weather View 32 v70,2013-05-08 11:16:00,
2013-05-08 05:21:00,44.0,36.2,30.06,NNW,337,4.0,15.0,74,0.00,,,0.02,Weather View 32 v70,2013-05-08 11:21:00,
2013-05-08 05:26:00,44.0,36.9,30.06,NW,315,5.0,15.0,76,0.00,,,0.02,Weather View 32 v70,2013-05-08 11:26:00,
2013-05-08 05:31:00,45.0,38.2,30.05,North,360,10.0,15.0,77,0.00,,,0.02,Weather View 32 v70,2013-05-08 11:31:00,
2013-05-08 05:36:00,45.0,38.2,30.05,North,360,8.0,15.0,77,0.00,,,0.02,Weather View 32 v70,2013-05-08 11:36:00,
2013-05-08 05:41:00,45.0,38.9,30.05,North,360,5.0,14.0,79,0.00,,,0.02,Weather View 32 v70,2013-05-08 11:41:00,
2013-05-08 05:46:00,45.0,38.9,30.05,North,360,2.0,14.0,79,0.00,,,0.02,Weather View 32 v70,2013-05-08 11:46:00,
2013-05-08 05:51:00,45.0,38.2,30.06,North,360,2.0,14.0,77,0.00,,,0.02,Weather View 32 v70,2013-05-08 11:51:00,
2013-05-08 05:56:00,44.0,37.6,30.06,East,90,2.0,13.0,78,0.00,,,0.02,Weather View 32 v70,2013-05-08 11:56:00,
2013-05-08 06:01:00,44.0,37.9,30.06,East,90,3.0,13.0,79,0.00,,,0.02,Weather View 32 v70,2013-05-08 12:01:00,
2013-05-08 06:06:00,44.0,37.9,30.06,East,90,6.0,13.0,79,0.00,,,0.02,Weather View 32 v70,2013-05-08 12:06:00,
2013-05-08 06:11:00,44.0,37.2,30.06,NNE,22,6.0,13.0,77,0.00,,,0.02,Weather View 32 v70,2013-05-08 12:11:00,
2013-05-08 06:16:00,44.0,37.2,30.06,NNE,22,2.0,13.0,77,0.00,,,0.02,Weather View 32 v70,2013-05-08 12:16:00,
2013-05-08 06:21:00,44.0,37.9,30.06,East,90,1.0,13.0,79,0.00,,,0.02,Weather View 32 v70,2013-05-08 12:21:00,
2013-05-08 06:26:00,44.0,38.2,30.06,SE,135,4.0,13.0,80,0.00,,,0.02,Weather View 32 v70,2013-05-08 12:26:00,
2013-05-08 06:31:00,44.0,38.5,30.07,SE,135,2.0,13.0,81,0.00,,,0.02,Weather View 32 v70,2013-05-08 12:31:00,
2013-05-08 06:36:00,44.0,38.5,30.07,SE,135,4.0,10.0,81,0.00,,,0.02,Weather View 32 v70,2013-05-08 12:36:00,
2013-05-08 06:41:00,44.0,38.9,30.08,SE,135,4.0,9.0,82,0.00,,,0.02,Weather View 32 v70,2013-05-08 12:41:00,
2013-05-08 06:46:00,44.0,39.2,30.08,SE,135,3.0,9.0,83,0.00,,,0.02,Weather View 32 v70,2013-05-08 12:46:00,
2013-05-08 06:51:00,44.0,39.5,30.08,East,90,4.0,9.0,84,0.00,,,0.02,Weather View 32 v70,2013-05-08 12:51:00,
2013-05-08 06:56:00,43.0,38.5,30.08,East,90,4.0,9.0,84,0.00,,,0.02,Weather View 32 v70,2013-05-08 12:56:00,
2013-05-08 07:01:00,43.0,39.1,30.08,East,90,3.0,9.0,86,0.00,,,0.02,Weather View 32 v70,2013-05-08 13:01:00,
2013-05-08 07:06:00,43.0,39.1,30.08,East,90,3.0,9.0,86,0.00,,,0.02,Weather View 32 v70,2013-05-08 13:06:00,
2013-05-08 07:11:00,43.0,39.1,30.09,East,90,3.0,8.0,86,0.00,,,0.02,Weather View 32 v70,2013-05-08 13:11:00,
2013-05-08 07:16:00,43.0,39.1,30.09,East,90,4.0,7.0,86,0.00,,,0.02,Weather View 32 v70,2013-05-08 13:16:00,
2013-05-08 07:21:00,44.0,39.5,30.09,East,90,4.0,7.0,84,-0.02,,,0.02,Weather View 32 v70,2013-05-08 13:21:00,
2013-05-08 07:26:00,45.0,38.9,30.09,SE,135,3.0,6.0,79,0.00,,,0.02,Weather View 32 v70,2013-05-08 13:26:00,
2013-05-08 07:31:00,46.0,38.2,30.09,SE,135,4.0,6.0,74,0.00,,,0.02,Weather View 32 v70,2013-05-08 13:31:00,
2013-05-08 07:36:00,47.0,37.7,30.09,East,90,3.0,7.0,70,0.00,,,0.02,Weather View 32 v70,2013-05-08 13:36:00,
2013-05-08 07:41:00,48.0,37.9,30.09,East,90,5.0,8.0,68,0.00,,,0.02,Weather View 32 v70,2013-05-08 13:41:00,
2013-05-08 07:46:00,48.0,36.8,30.09,East,90,4.0,9.0,65,0.00,,,0.02,Weather View 32 v70,2013-05-08 13:46:00,
2013-05-08 07:51:00,49.0,37.3,30.09,East,90,6.0,9.0,64,0.00,,,0.02,Weather View 32 v70,2013-05-08 13:51:00,
2013-05-08 07:56:00,49.0,36.9,30.09,SE,135,6.0,9.0,63,0.00,,,0.02,Weather View 32 v70,2013-05-08 13:56:00,
2013-05-08 08:01:00,50.0,37.5,30.09,SE,135,6.0,10.0,62,0.00,,,0.02,Weather View 32 v70,2013-05-08 14:01:00,
2013-05-08 08:06:00,50.0,36.2,30.09,East,90,4.0,10.0,59,0.00,,,0.02,Weather View 32 v70,2013-05-08 14:06:00,
2013-05-08 08:11:00,51.0,37.2,30.09,ESE,112,4.0,10.0,59,0.00,,,0.02,Weather View 32 v70,2013-05-08 14:11:00,
2013-05-08 08:16:00,51.0,35.8,30.09,East,90,2.0,10.0,56,0.00,,,0.02,Weather View 32 v70,2013-05-08 14:16:00,
2013-05-08 08:21:00,52.0,36.8,30.09,East,90,4.0,10.0,56,0.00,,,0.02,Weather View 32 v70,2013-05-08 14:21:00,
2013-05-08 08:26:00,53.0,36.3,30.09,East,90,4.0,10.0,53,0.00,,,0.02,Weather View 32 v70,2013-05-08 14:26:00,
2013-05-08 08:31:00,53.0,35.3,30.09,East,90,5.0,10.0,51,0.00,,,0.02,Weather View 32 v70,2013-05-08 14:31:00,
2013-05-08 08:36:00,54.0,37.2,30.09,NE,45,6.0,10.0,53,0.00,,,0.02,Weather View 32 v70,2013-05-08 14:36:00,
2013-05-08 08:41:00,54.0,37.7,30.09,NE,45,4.0,10.0,54,0.00,,,0.02,Weather View 32 v70,2013-05-08 14:41:00,
2013-05-08 08:46:00,54.0,36.7,30.09,NE,45,0.0,10.0,52,0.00,,,0.02,Weather View 32 v70,2013-05-08 14:46:00,
2013-05-08 08:51:00,55.0,35.1,30.08,NNE,22,6.0,10.0,47,0.00,,,0.02,Weather View 32 v70,2013-05-08 14:51:00,
2013-05-08 08:56:00,54.0,35.2,30.08,NNE,22,4.0,10.0,49,0.00,,,0.02,Weather View 32 v70,2013-05-08 14:56:00,
2013-05-08 09:01:00,54.0,34.7,30.09,NW,315,3.0,9.0,48,0.00,,,0.02,Weather View 32 v70,2013-05-08 15:01:00,
2013-05-08 09:06:00,54.0,35.7,30.09,NW,315,4.0,10.0,50,0.00,,,0.02,Weather View 32 v70,2013-05-08 15:06:00,
2013-05-08 09:11:00,54.0,36.2,30.09,NW,315,5.0,10.0,51,0.00,,,0.02,Weather View 32 v70,2013-05-08 15:11:00,
2013-05-08 09:16:00,54.0,37.2,30.09,NW,315,7.0,10.0,53,0.00,,,0.02,Weather View 32 v70,2013-05-08 15:16:00,
2013-05-08 09:21:00,53.0,37.7,30.09,NW,315,2.0,10.0,56,0.00,,,0.02,Weather View 32 v70,2013-05-08 15:21:00,
2013-05-08 09:26:00,53.0,38.6,30.09,West,270,3.0,10.0,58,0.00,,,0.02,Weather View 32 v70,2013-05-08 15:26:00,
2013-05-08 09:31:00,52.0,33.4,30.09,West,270,5.0,10.0,49,0.00,,,0.02,Weather View 32 v70,2013-05-08 15:31:00,
2013-05-08 09:36:00,53.0,33.8,30.09,North,360,9.0,16.0,48,0.00,,,0.02,Weather View 32 v70,2013-05-08 15:36:00,
2013-05-08 09:40:00,53.0,32.2,30.09,West,270,10.0,16.0,45,0.00,,,0.02,Weather View 32 v70,2013-05-08 15:40:00,
2013-05-08 09:45:00,54.0,32.5,30.09,NW,315,6.0,16.0,44,0.00,,,0.02,Weather View 32 v70,2013-05-08 15:45:00,
2013-05-08 09:50:00,55.0,31.1,30.09,NW,315,9.0,16.0,40,0.00,,,0.02,Weather View 32 v70,2013-05-08 15:50:00,
2013-05-08 09:55:00,55.0,32.9,30.09,WSW,247,4.0,16.0,43,0.00,,,0.02,Weather View 32 v70,2013-05-08 15:55:00,
2013-05-08 10:00:00,55.0,33.4,30.10,WSW,247,5.0,16.0,44,0.00,,,0.02,Weather View 32 v70,2013-05-08 16:00:00,
2013-05-08 10:05:00,55.0,30.4,30.10,WSW,247,6.0,16.0,39,0.00,,,0.02,Weather View 32 v70,2013-05-08 16:05:00,
2013-05-08 10:10:00,55.0,31.1,30.09,West,270,6.0,16.0,40,0.00,,,0.02,Weather View 32 v70,2013-05-08 16:10:00,
2013-05-08 10:15:00,55.0,31.7,30.09,West,270,5.0,16.0,41,0.00,,,0.02,Weather View 32 v70,2013-05-08 16:15:00,
2013-05-08 10:20:00,55.0,29.8,30.10,West,270,8.0,16.0,38,0.00,,,0.02,Weather View 32 v70,2013-05-08 16:20:00,
2013-05-08 10:25:00,56.0,27.2,30.10,WSW,247,1.0,16.0,33,0.00,,,0.02,Weather View 32 v70,2013-05-08 16:25:00,
2013-05-08 10:30:00,56.0,27.2,30.10,West,270,7.0,16.0,33,0.00,,,0.02,Weather View 32 v70,2013-05-08 16:30:00,
2013-05-08 10:35:00,56.0,28.0,30.10,SW,225,7.0,16.0,34,0.00,,,0.02,Weather View 32 v70,2013-05-08 16:35:00,
2013-05-08 10:40:00,56.0,25.7,30.10,SW,225,6.0,16.0,31,0.00,,,0.02,Weather View 32 v70,2013-05-08 16:40:00,
2013-05-08 10:45:00,56.0,24.1,30.10,NW,315,5.0,16.0,29,0.01,,,0.03,Weather View 32 v70,2013-05-08 16:45:00,
2013-05-08 10:50:00,57.0,25.8,30.09,NW,315,5.0,15.0,30,0.01,,,0.03,Weather View 32 v70,2013-05-08 16:50:00,
2013-05-08 10:55:00,57.0,27.4,30.09,WSW,247,8.0,15.0,32,0.01,,,0.03,Weather View 32 v70,2013-05-08 16:55:00,
2013-05-08 11:00:00,56.0,27.2,30.10,NW,315,5.0,15.0,33,0.01,,,0.03,Weather View 32 v70,2013-05-08 17:00:00,
2013-05-08 11:05:00,56.0,27.2,30.10,West,270,7.0,15.0,33,0.01,,,0.03,Weather View 32 v70,2013-05-08 17:05:00,
2013-05-08 11:10:00,56.0,26.5,30.10,SW,225,8.0,14.0,32,0.01,,,0.03,Weather View 32 v70,2013-05-08 17:10:00,
2013-05-08 11:15:00,57.0,27.4,30.10,NW,315,7.0,17.0,32,0.01,,,0.03,Weather View 32 v70,2013-05-08 17:15:00,
2013-05-08 11:20:00,57.0,26.6,30.10,West,270,3.0,17.0,31,0.01,,,0.03,Weather View 32 v70,2013-05-08 17:20:00,
2013-05-08 11:25:00,57.0,27.4,30.10,NW,315,8.0,18.0,32,0.01,,,0.03,Weather View 32 v70,2013-05-08 17:25:00,
2013-05-08 11:30:00,56.0,27.2,30.10,WSW,247,5.0,18.0,33,0.01,,,0.03,Weather View 32 v70,2013-05-08 17:30:00,
2013-05-08 11:35:00,56.0,28.7,30.10,West,270,3.0,18.0,35,0.01,,,0.03,Weather View 32 v70,2013-05-08 17:35:00,
2013-05-08 11:40:00,56.0,27.2,30.10,West,270,13.0,18.0,33,0.01,,,0.03,Weather View 32 v70,2013-05-08 17:40:00,
2013-05-08 11:45:00,55.0,27.8,30.10,West,270,7.0,19.0,35,0.00,,,0.03,Weather View 32 v70,2013-05-08 17:45:00,
2013-05-08 11:50:00,55.0,27.8,30.10,WSW,247,5.0,19.0,35,0.00,,,0.03,Weather View 32 v70,2013-05-08 17:50:00,
2013-05-08 11:55:00,54.0,26.9,30.10,West,270,9.0,19.0,35,0.00,,,0.03,Weather View 32 v70,2013-05-08 17:55:00,
2013-05-08 12:00:00,55.0,26.4,30.10,West,270,14.0,19.0,33,0.00,,,0.03,Weather View 32 v70,2013-05-08 18:00:00,
2013-05-08 12:05:00,55.0,27.1,30.10,WNW,292,7.0,19.0,34,0.00,,,0.03,Weather View 32 v70,2013-05-08 18:05:00,
2013-05-08 12:10:00,55.0,28.5,30.10,West,270,5.0,19.0,36,0.00,,,0.03,Weather View 32 v70,2013-05-08 18:10:00,
2013-05-08 12:15:00,56.0,28.7,30.10,SSW,202,5.0,19.0,35,0.00,,,0.03,Weather View 32 v70,2013-05-08 18:15:00,
2013-05-08 12:20:00,56.0,27.2,30.10,WNW,292,8.0,19.0,33,0.00,,,0.03,Weather View 32 v70,2013-05-08 18:20:00,
2013-05-08 12:25:00,56.0,28.0,30.10,West,270,8.0,19.0,34,0.00,,,0.03,Weather View 32 v70,2013-05-08 18:25:00,
2013-05-08 12:30:00,56.0,25.7,30.10,SSW,202,11.0,19.0,31,0.00,,,0.03,Weather View 32 v70,2013-05-08 18:30:00,
2013-05-08 12:35:00,56.0,27.2,30.10,WSW,247,9.0,19.0,33,0.00,,,0.03,Weather View 32 v70,2013-05-08 18:35:00,
2013-05-08 12:40:00,56.0,25.7,30.09,SW,225,8.0,19.0,31,0.00,,,0.03,Weather View 32 v70,2013-05-08 18:40:00,
2013-05-08 12:45:00,56.0,25.7,30.09,West,270,8.0,17.0,31,0.00,,,0.03,Weather View 32 v70,2013-05-08 18:45:00,
2013-05-08 12:50:00,57.0,24.2,30.09,South,180,6.0,16.0,28,0.00,,,0.03,Weather View 32 v70,2013-05-08 18:50:00,
2013-05-08 12:55:00,58.0,23.2,30.09,SW,225,10.0,19.0,26,0.00,,,0.03,Weather View 32 v70,2013-05-08 18:55:00,
2013-05-08 13:00:00,59.0,25.9,30.08,SSW,202,8.0,20.0,28,0.00,,,0.03,Weather View 32 v70,2013-05-08 19:00:00,
2013-05-08 13:05:00,59.0,25.9,30.08,NW,315,7.0,20.0,28,0.00,,,0.03,Weather View 32 v70,2013-05-08 19:05:00,
2013-05-08 13:10:00,58.0,27.5,30.08,West,270,6.0,20.0,31,0.00,,,0.03,Weather View 32 v70,2013-05-08 19:10:00,
2013-05-08 13:15:00,58.0,27.5,30.08,West,270,6.0,20.0,31,0.00,,,0.03,Weather View 32 v70,2013-05-08 19:15:00,
2013-05-08 13:20:00,58.0,27.5,30.09,SW,225,10.0,20.0,31,0.00,,,0.03,Weather View 32 v70,2013-05-08 19:20:00,
2013-05-08 13:25:00,58.0,25.0,30.09,SW,225,9.0,20.0,28,0.00,,,0.03,Weather View 32 v70,2013-05-08 19:25:00,
2013-05-08 13:30:00,59.0,26.7,30.08,West,270,3.0,20.0,29,0.00,,,0.03,Weather View 32 v70,2013-05-08 19:30:00,
2013-05-08 13:35:00,59.0,25.9,30.08,WSW,247,9.0,20.0,28,0.00,,,0.03,Weather View 32 v70,2013-05-08 19:35:00,
2013-05-08 13:40:00,60.0,26.7,30.08,NW,315,7.0,20.0,28,0.00,,,0.03,Weather View 32 v70,2013-05-08 19:40:00,
2013-05-08 13:45:00,60.0,26.7,30.08,West,270,7.0,20.0,28,0.00,,,0.03,Weather View 32 v70,2013-05-08 19:45:00,
2013-05-08 13:50:00,60.0,24.0,30.08,SW,225,10.0,20.0,25,0.00,,,0.03,Weather View 32 v70,2013-05-08 19:50:00,
2013-05-08 13:55:00,60.0,26.7,30.08,West,270,8.0,20.0,28,0.00,,,0.03,Weather View 32 v70,2013-05-08 19:55:00,
2013-05-08 14:00:00,60.0,25.9,30.08,SW,225,10.0,20.0,27,0.00,,,0.03,Weather View 32 v70,2013-05-08 20:00:00,
2013-05-08 14:05:00,60.0,26.7,30.08,SW,225,11.0,20.0,28,0.00,,,0.03,Weather View 32 v70,2013-05-08 20:05:00,
2013-05-08 14:10:00,58.0,25.0,30.08,SSW,202,6.0,20.0,28,0.00,,,0.03,Weather View 32 v70,2013-05-08 20:10:00,
2013-05-08 14:15:00,58.0,29.7,30.08,SW,225,11.0,20.0,34,0.00,,,0.03,Weather View 32 v70,2013-05-08 20:15:00,
2013-05-08 14:20:00,57.0,30.3,30.09,NNW,337,5.0,23.0,36,0.00,,,0.03,Weather View 32 v70,2013-05-08 20:20:00,
2013-05-08 14:25:00,57.0,30.3,30.09,WNW,292,11.0,23.0,36,0.00,,,0.03,Weather View 32 v70,2013-05-08 20:25:00,
2013-05-08 14:30:00,57.0,30.3,30.09,NW,315,7.0,23.0,36,0.00,,,0.03,Weather View 32 v70,2013-05-08 20:30:00,
2013-05-08 14:35:00,57.0,30.3,30.09,North,360,12.0,23.0,36,0.00,,,0.03,Weather View 32 v70,2013-05-08 20:35:00,
2013-05-08 14:40:00,56.0,30.7,30.09,NW,315,9.0,23.0,38,0.00,,,0.03,Weather View 32 v70,2013-05-08 20:40:00,
2013-05-08 14:45:00,56.0,30.0,30.09,North,360,13.0,23.0,37,0.00,,,0.03,Weather View 32 v70,2013-05-08 20:45:00,
2013-05-08 14:50:00,55.0,29.8,30.09,NW,315,5.0,23.0,38,0.00,,,0.03,Weather View 32 v70,2013-05-08 20:50:00,
2013-05-08 14:55:00,55.0,28.5,30.09,West,270,8.0,23.0,36,0.00,,,0.03,Weather View 32 v70,2013-05-08 20:55:00,
2013-05-08 15:00:00,56.0,28.0,30.09,NW,315,6.0,23.0,34,0.00,,,0.03,Weather View 32 v70,2013-05-08 21:00:00,
2013-05-08 15:05:00,56.0,28.7,30.09,West,270,5.0,23.0,35,0.00,,,0.03,Weather View 32 v70,2013-05-08 21:05:00,
2013-05-08 15:10:00,56.0,29.4,30.08,NW,315,7.0,23.0,36,0.00,,,0.03,Weather View 32 v70,2013-05-08 21:10:00,
2013-05-08 15:15:00,57.0,28.1,30.08,NW,315,8.0,23.0,33,0.00,,,0.03,Weather View 32 v70,2013-05-08 21:15:00,
2013-05-08 15:20:00,57.0,27.4,30.08,West,270,6.0,22.0,32,0.00,,,0.03,Weather View 32 v70,2013-05-08 21:20:00,
2013-05-08 15:25:00,57.0,28.1,30.08,WNW,292,8.0,22.0,33,0.00,,,0.03,Weather View 32 v70,2013-05-08 21:25:00,
2013-05-08 15:30:00,57.0,28.1,30.08,WSW,247,5.0,19.0,33,0.00,,,0.03,Weather View 32 v70,2013-05-08 21:30:00,
2013-05-08 15:35:00,57.0,28.9,30.08,West,270,6.0,19.0,34,0.00,,,0.03,Weather View 32 v70,2013-05-08 21:35:00,
2013-05-08 15:40:00,58.0,29.7,30.07,NW,315,9.0,22.0,34,0.00,,,0.03,Weather View 32 v70,2013-05-08 21:40:00,
2013-05-08 15:45:00,58.0,30.4,30.07,NW,315,10.0,22.0,35,0.00,,,0.03,Weather View 32 v70,2013-05-08 21:45:00,
2013-05-08 15:50:00,58.0,30.4,30.07,NW,315,16.0,22.0,35,0.00,,,0.03,Weather View 32 v70,2013-05-08 21:50:00,
2013-05-08 15:55:00,58.0,31.1,30.07,NW,315,4.0,22.0,36,0.00,,,0.03,Weather View 32 v70,2013-05-08 21:55:00,
2013-05-08 16:00:00,58.0,29.0,30.06,WNW,292,10.0,22.0,33,0.00,,,0.03,Weather View 32 v70,2013-05-08 22:00:00,
2013-05-08 16:05:00,58.0,29.0,30.06,WNW,292,7.0,22.0,33,0.00,,,0.03,Weather View 32 v70,2013-05-08 22:05:00,
2013-05-08 16:10:00,58.0,28.2,30.06,NW,315,7.0,22.0,32,0.00,,,0.03,Weather View 32 v70,2013-05-08 22:10:00,
2013-05-08 16:15:00,59.0,27.5,30.06,North,360,8.0,22.0,30,0.00,,,0.03,Weather View 32 v70,2013-05-08 22:15:00,
2013-05-08 16:20:00,58.0,26.7,30.05,NNW,337,7.0,22.0,30,0.00,,,0.03,Weather View 32 v70,2013-05-08 22:20:00,
2013-05-08 16:25:00,58.0,26.7,30.05,North,360,10.0,22.0,30,0.00,,,0.03,Weather View 32 v70,2013-05-08 22:25:00,
2013-05-08 16:30:00,58.0,27.5,30.05,West,270,8.0,22.0,31,0.00,,,0.03,Weather View 32 v70,2013-05-08 22:30:00,
2013-05-08 16:35:00,58.0,25.9,30.05,West,270,8.0,22.0,29,0.00,,,0.03,Weather View 32 v70,2013-05-08 22:35:00,
2013-05-08 16:40:00,58.0,25.9,30.06,West,270,9.0,21.0,29,0.00,,,0.03,Weather View 32 v70,2013-05-08 22:40:00,
2013-05-08 16:45:00,58.0,25.9,30.06,WNW,292,3.0,21.0,29,0.00,,,0.03,Weather View 32 v70,2013-05-08 22:45:00,
2013-05-08 16:50:00,59.0,25.9,30.05,West,270,9.0,21.0,28,0.00,,,0.03,Weather View 32 v70,2013-05-08 22:50:00,
2013-05-08 16:55:00,59.0,25.9,30.05,NW,315,8.0,21.0,28,0.00,,,0.03,Weather View 32 v70,2013-05-08 22:55:00,
2013-05-08 17:00:00,59.0,26.7,30.05,WNW,292,14.0,22.0,29,0.00,,,0.03,Weather View 32 v70,2013-05-08 23:00:00,
2013-05-08 17:05:00,59.0,26.7,30.05,NW,315,10.0,22.0,29,0.00,,,0.03,Weather View 32 v70,2013-05-08 23:05:00,
2013-05-08 17:10:00,59.0,26.7,30.05,North,360,10.0,22.0,29,0.00,,,0.03,Weather View 32 v70,2013-05-08 23:10:00,
2013-05-08 17:15:00,58.0,28.2,30.05,NW,315,6.0,22.0,32,0.00,,,0.03,Weather View 32 v70,2013-05-08 23:15:00,
2013-05-08 17:20:00,57.0,28.1,30.06,WSW,247,6.0,22.0,33,0.00,,,0.03,Weather View 32 v70,2013-05-08 23:20:00,
2013-05-08 17:25:00,57.0,27.4,30.06,WSW,247,6.0,22.0,32,0.00,,,0.03,Weather View 32 v70,2013-05-08 23:25:00,
2013-05-08 17:30:00,58.0,27.5,30.05,SW,225,5.0,22.0,31,0.00,,,0.03,Weather View 32 v70,2013-05-08 23:30:00,
2013-05-08 17:35:00,58.0,27.5,30.05,WSW,247,4.0,22.0,31,0.00,,,0.03,Weather View 32 v70,2013-05-08 23:35:00,
2013-05-08 17:40:00,58.0,26.7,30.05,SW,225,6.0,22.0,30,0.00,,,0.03,Weather View 32 v70,2013-05-08 23:40:00,
2013-05-08 17:45:00,59.0,26.7,30.05,West,270,7.0,22.0,29,0.00,,,0.03,Weather View 32 v70,2013-05-08 23:45:00,
2013-05-08 17:50:00,59.0,27.5,30.04,NW,315,9.0,22.0,30,0.00,,,0.03,Weather View 32 v70,2013-05-08 23:50:00,
2013-05-08 17:55:00,59.0,24.1,30.04,NW,315,10.0,22.0,26,0.00,,,0.03,Weather View 32 v70,2013-05-08 23:55:00,
2013-05-08 18:00:00,59.0,26.7,30.05,West,270,5.0,21.0,29,0.00,,,0.03,Weather View 32 v70,2013-05-09 00:00:00,
2013-05-08 18:05:00,59.0,25.9,30.05,West,270,8.0,21.0,28,0.00,,,0.03,Weather View 32 v70,2013-05-09 00:05:00,
2013-05-08 18:10:00,59.0,25.9,30.04,SW,225,8.0,21.0,28,0.00,,,0.03,Weather View 32 v70,2013-05-09 00:10:00,
2013-05-08 18:15:00,59.0,25.9,30.04,West,270,5.0,15.0,28,0.00,,,0.03,Weather View 32 v70,2013-05-09 00:15:00,
2013-05-08 18:20:00,59.0,26.7,30.04,SW,225,6.0,15.0,29,0.00,,,0.03,Weather View 32 v70,2013-05-09 00:20:00,
2013-05-08 18:25:00,59.0,27.5,30.04,West,270,7.0,15.0,30,0.00,,,0.03,Weather View 32 v70,2013-05-09 00:25:00,
2013-05-08 18:30:00,59.0,25.9,30.04,West,270,5.0,15.0,28,0.00,,,0.03,Weather View 32 v70,2013-05-09 00:30:00,
2013-05-08 18:35:00,59.0,26.7,30.04,WSW,247,7.0,20.0,29,0.00,,,0.03,Weather View 32 v70,2013-05-09 00:35:00,
2013-05-08 18:40:00,58.0,26.7,30.04,WSW,247,5.0,20.0,30,0.00,,,0.03,Weather View 32 v70,2013-05-09 00:40:00,
2013-05-08 18:45:00,58.0,27.5,30.04,WNW,292,9.0,20.0,31,0.00,,,0.03,Weather View 32 v70,2013-05-09 00:45:00,
2013-05-08 18:50:00,58.0,27.5,30.04,West,270,10.0,20.0,31,0.00,,,0.03,Weather View 32 v70,2013-05-09 00:50:00,
2013-05-08 18:55:00,58.0,26.7,30.04,West,270,8.0,20.0,30,0.00,,,0.03,Weather View 32 v70,2013-05-09 00:55:00,
2013-05-08 19:00:00,58.0,27.5,30.04,West,270,5.0,20.0,31,0.00,,,0.03,Weather View 32 v70,2013-05-09 01:00:00,
2013-05-08 19:05:00,58.0,27.5,30.04,West,270,6.0,20.0,31,0.00,,,0.03,Weather View 32 v70,2013-05-09 01:05:00,
2013-05-08 19:10:00,58.0,27.5,30.05,West,270,8.0,20.0,31,0.00,,,0.03,Weather View 32 v70,2013-05-09 01:10:00,
2013-05-08 19:15:00,57.0,25.8,30.05,WNW,292,6.0,20.0,30,0.00,,,0.03,Weather View 32 v70,2013-05-09 01:15:00,
2013-05-08 19:20:00,57.0,26.6,30.04,West,270,5.0,20.0,31,0.00,,,0.03,Weather View 32 v70,2013-05-09 01:20:00,
2013-05-08 19:25:00,57.0,27.4,30.04,West,270,5.0,20.0,32,0.00,,,0.03,Weather View 32 v70,2013-05-09 01:25:00,
2013-05-08 19:30:00,57.0,26.6,30.05,NW,315,10.0,20.0,31,0.00,,,0.03,Weather View 32 v70,2013-05-09 01:30:00,
2013-05-08 19:35:00,57.0,26.6,30.05,West,270,4.0,20.0,31,0.00,,,0.03,Weather View 32 v70,2013-05-09 01:35:00,
2013-05-08 19:40:00,56.0,25.7,30.05,WNW,292,6.0,16.0,31,0.00,,,0.03,Weather View 32 v70,2013-05-09 01:40:00,
2013-05-08 19:45:00,56.0,26.5,30.05,NW,315,5.0,16.0,32,0.00,,,0.03,Weather View 32 v70,2013-05-09 01:45:00,
2013-05-08 19:50:00,56.0,26.5,30.06,West,270,5.0,16.0,32,0.00,,,0.03,Weather View 32 v70,2013-05-09 01:50:00,
2013-05-08 19:55:00,55.0,25.6,30.06,WNW,292,6.0,16.0,32,0.00,,,0.03,Weather View 32 v70,2013-05-09 01:55:00,
2013-05-08 20:00:00,55.0,26.4,30.06,WNW,292,8.0,16.0,33,0.00,,,0.03,Weather View 32 v70,2013-05-09 02:00:00,
2013-05-08 20:05:00,55.0,27.1,30.06,NW,315,1.0,16.0,34,0.00,,,0.03,Weather View 32 v70,2013-05-09 02:05:00,
2013-05-08 20:10:00,55.0,27.1,30.07,WNW,292,8.0,16.0,34,0.00,,,0.03,Weather View 32 v70,2013-05-09 02:10:00,
2013-05-08 20:15:00,54.0,26.9,30.07,NW,315,4.0,14.0,35,0.00,,,0.03,Weather View 32 v70,2013-05-09 02:15:00,
2013-05-08 20:20:00,54.0,26.9,30.07,WNW,292,3.0,14.0,35,0.00,,,0.03,Weather View 32 v70,2013-05-09 02:20:00,
2013-05-08 20:25:00,54.0,26.9,30.07,NW,315,6.0,14.0,35,0.00,,,0.03,Weather View 32 v70,2013-05-09 02:25:00,
2013-05-08 20:30:00,54.0,26.9,30.08,NW,315,5.0,14.0,35,0.00,,,0.03,Weather View 32 v70,2013-05-09 02:30:00,
2013-05-08 20:35:00,54.0,26.2,30.08,NNW,337,5.0,14.0,34,0.00,,,0.03,Weather View 32 v70,2013-05-09 02:35:00,
2013-05-08 20:40:00,53.0,26.0,30.07,NW,315,5.0,14.0,35,0.00,,,0.03,Weather View 32 v70,2013-05-09 02:40:00,
2013-05-08 20:45:00,53.0,26.0,30.07,NNW,337,6.0,14.0,35,0.00,,,0.03,Weather View 32 v70,2013-05-09 02:45:00,
2013-05-08 20:50:00,53.0,26.7,30.08,North,360,4.0,14.0,36,0.00,,,0.03,Weather View 32 v70,2013-05-09 02:50:00,
2013-05-08 20:55:00,53.0,26.7,30.08,NNW,337,4.0,11.0,36,0.00,,,0.03,Weather View 32 v70,2013-05-09 02:55:00,
2013-05-08 21:00:00,53.0,26.7,30.08,NNW,337,6.0,11.0,36,0.00,,,0.03,Weather View 32 v70,2013-05-09 03:00:00,
2013-05-08 21:05:00,52.0,26.5,30.08,NW,315,7.0,10.0,37,0.00,,,0.03,Weather View 32 v70,2013-05-09 03:05:00,
2013-05-08 21:10:00,52.0,26.5,30.08,NNW,337,5.0,10.0,37,0.00,,,0.03,Weather View 32 v70,2013-05-09 03:10:00,
2013-05-08 21:15:00,52.0,27.1,30.08,NNW,337,4.0,10.0,38,0.00,,,0.03,Weather View 32 v70,2013-05-09 03:15:00,
2013-05-08 21:20:00,52.0,27.1,30.08,NW,315,4.0,10.0,38,0.00,,,0.03,Weather View 32 v70,2013-05-09 03:20:00,
2013-05-08 21:25:00,52.0,27.1,30.08,NW,315,5.0,10.0,38,0.00,,,0.03,Weather View 32 v70,2013-05-09 03:25:00,
2013-05-08 21:30:00,51.0,26.9,30.08,NW,315,3.0,10.0,39,0.00,,,0.03,Weather View 32 v70,2013-05-09 03:30:00,
2013-05-08 21:35:00,51.0,26.9,30.08,NW,315,3.0,10.0,39,0.00,,,0.03,Weather View 32 v70,2013-05-09 03:35:00,
2013-05-08 21:40:00,51.0,27.5,30.08,NW,315,4.0,10.0,40,0.00,,,0.03,Weather View 32 v70,2013-05-09 03:40:00,
2013-05-08 21:45:00,51.0,28.1,30.08,NW,315,4.0,10.0,41,0.00,,,0.03,Weather View 32 v70,2013-05-09 03:45:00,
2013-05-08 21:50:00,51.0,28.1,30.09,NW,315,4.0,10.0,41,0.00,,,0.03,Weather View 32 v70,2013-05-09 03:50:00,
2013-05-08 21:55:00,50.0,26.6,30.09,NW,315,3.0,10.0,40,0.00,,,0.03,Weather View 32 v70,2013-05-09 03:55:00,
2013-05-08 22:00:00,50.0,26.6,30.09,NW,315,4.0,10.0,40,0.00,,,0.03,Weather View 32 v70,2013-05-09 04:00:00,
2013-05-08 22:01:00,50.0,26.6,30.09,NW,315,3.0,10.0,40,0.00,,,0.03,Weather View 32 v70,2013-05-09 04:01:00,
2013-05-08 22:06:00,50.0,27.8,30.09,NW,315,3.0,8.0,42,0.00,,,0.03,Weather View 32 v70,2013-05-09 04:06:00,
2013-05-08 22:11:00,49.0,28.5,30.09,North,360,5.0,8.0,45,0.00,,,0.03,Weather View 32 v70,2013-05-09 04:11:00,
2013-05-08 22:16:00,49.0,27.4,30.09,North,360,7.0,9.0,43,0.00,,,0.03,Weather View 32 v70,2013-05-09 04:16:00,
2013-05-08 22:21:00,50.0,28.3,30.10,North,360,9.0,9.0,43,0.00,,,0.03,Weather View 32 v70,2013-05-09 04:21:00,
2013-05-08 22:26:00,50.0,28.3,30.10,North,360,6.0,12.0,43,0.00,,,0.03,Weather View 32 v70,2013-05-09 04:26:00,
2013-05-08 22:31:00,50.0,28.9,30.09,North,360,6.0,12.0,44,0.00,,,0.03,Weather View 32 v70,2013-05-09 04:31:00,
2013-05-08 22:36:00,49.0,28.5,30.09,NNE,22,7.0,12.0,45,0.00,,,0.03,Weather View 32 v70,2013-05-09 04:36:00,
2013-05-08 22:41:00,49.0,29.1,30.10,North,360,7.0,12.0,46,0.00,,,0.03,Weather View 32 v70,2013-05-09 04:41:00,
2013-05-08 22:46:00,49.0,29.6,30.10,North,360,4.0,12.0,47,0.00,,,0.03,Weather View 32 v70,2013-05-09 04:46:00,
2013-05-08 22:51:00,49.0,29.6,30.10,North,360,5.0,12.0,47,0.00,,,0.03,Weather View 32 v70,2013-05-09 04:51:00,
2013-05-08 22:56:00,49.0,30.6,30.10,North,360,6.0,12.0,49,0.00,,,0.03,Weather View 32 v70,2013-05-09 04:56:00,
2013-05-08 23:01:00,48.0,30.2,30.10,North,360,6.0,12.0,50,0.00,,,0.03,Weather View 32 v70,2013-05-09 05:01:00,
2013-05-08 23:06:00,48.0,30.2,30.10,North,360,7.0,12.0,50,0.00,,,0.03,Weather View 32 v70,2013-05-09 05:06:00,
2013-05-08 23:11:00,48.0,30.2,30.10,NNE,22,4.0,12.0,50,0.00,,,0.03,Weather View 32 v70,2013-05-09 05:11:00,
2013-05-08 23:16:00,48.0,30.7,30.10,NNE,22,6.0,12.0,51,0.00,,,0.03,Weather View 32 v70,2013-05-09 05:16:00,
2013-05-08 23:21:00,48.0,30.7,30.09,NNE,22,0.0,12.0,51,0.00,,,0.03,Weather View 32 v70,2013-05-09 05:21:00,
2013-05-08 23:26:00,47.0,30.3,30.09,NNE,22,0.0,12.0,52,0.00,,,0.03,Weather View 32 v70,2013-05-09 05:26:00,
2013-05-08 23:31:00,47.0,30.3,30.10,NNE,22,0.0,11.0,52,0.00,,,0.03,Weather View 32 v70,2013-05-09 05:31:00,
2013-05-08 23:36:00,47.0,30.7,30.10,NNE,22,0.0,11.0,53,0.00,,,0.03,Weather View 32 v70,2013-05-09 05:36:00,
2013-05-08 23:41:00,46.0,30.7,30.10,NNE,22,2.0,10.0,55,0.00,,,0.03,Weather View 32 v70,2013-05-09 05:41:00,
2013-05-08 23:46:00,46.0,29.8,30.10,NNE,22,3.0,10.0,53,0.00,,,0.03,Weather View 32 v70,2013-05-09 05:46:00,
2013-05-08 23:51:00,46.0,29.8,30.10,NNE,22,0.0,10.0,53,0.00,,,0.03,Weather View 32 v70,2013-05-09 05:51:00,
2013-05-08 23:56:00,46.0,30.3,30.10,NNE,22,3.0,10.0,54,0.00,,,0.03,Weather View 32 v70,2013-05-09 05:56:00,